Time;durP1;ratioP1;P1;durP2;ratioP2;P2;SDS_P1;SDS_P2;PMS_P1;PMS_P2;Temp;Humidity;BMP_temperature;BMP_pressure;BME280_temperature;BME280_humidity;BME280_pressure;Samples;Min_cycle;Max_cycle;Signal;HPM_P1;HPM_P2
2022/03/07 00:01:53;;;;;;;;;;;6.20;44.30;;;4.31;39.50;101221.13;5068416;28;20039;-76
2022/03/07 00:04:38;;;;;;;;;;;6.40;44.50;;;4.33;39.77;101215.97;5066481;28;19916;-75
2022/03/07 00:07:08;;;;;;;;;;;4.70;43.70;;;4.25;39.96;101214.09;5066973;28;19924;-76
2022/03/07 00:09:52;;;;;;;;;;;5.60;44.30;;;4.28;39.90;101215.00;5053705;28;20573;-75
2022/03/07 00:12:19;;;;;;;;;;;6.20;44.70;;;4.26;39.83;101213.25;5049910;28;19944;-75
2022/03/07 00:14:52;;;;;;;;;;;4.60;43.90;;;4.22;39.87;101227.09;5066937;28;19925;-75
2022/03/07 00:17:19;;;;;;;;;;;4.50;44.00;;;4.21;39.97;101221.84;5068362;28;20329;-75
2022/03/07 00:19:46;;;;;;;;;;;5.00;44.20;;;4.20;40.28;101215.75;5067570;28;19925;-75
2022/03/07 00:22:13;;;;;;;;;;;4.60;44.00;;;4.23;39.98;101223.63;5068422;28;19936;-75
2022/03/07 00:24:39;;;;;;;;;;;4.60;44.10;;;4.22;40.03;101224.47;5066820;28;19929;-75
2022/03/07 00:27:06;;;;;;;;;;;4.60;44.00;;;4.21;39.90;101224.44;5068177;28;19925;-75
2022/03/07 00:29:33;;;;;;;;;;;5.00;44.20;;;4.21;39.85;101224.44;5068310;28;19935;-75
2022/03/07 00:32:00;;;;;;;;;;;4.60;44.10;;;4.16;40.17;101224.38;5065708;28;19929;-75
2022/03/07 00:34:27;;;;;;;;;;;4.60;44.20;;;4.10;40.20;101232.09;5046100;28;19932;-75
2022/03/07 00:36:57;;;;;;;;;;;4.80;44.30;;;4.15;39.92;101232.16;5049306;28;19925;-75
2022/03/07 00:39:23;;;;;;;;;;;6.10;44.80;;;4.11;39.90;101229.50;5051043;28;20329;-75
2022/03/07 00:41:50;;;;;;;;;;;4.90;44.10;;;4.07;40.08;101229.44;5052622;28;19924;-75
2022/03/07 00:44:17;;;;;;;;;;;4.50;44.10;;;4.09;40.18;101227.72;5049916;28;20223;-76
2022/03/07 00:46:44;;;;;;;;;;;4.50;44.20;;;4.08;40.22;101231.19;5034138;28;19928;-74
2022/03/07 00:49:12;;;;;;;;;;;4.50;44.20;;;3.96;40.25;101232.72;5050616;28;19936;-75
2022/03/07 00:51:41;;;;;;;;;;;4.40;44.10;;;4.07;40.29;101234.66;5050849;28;19928;-75
2022/03/07 00:54:11;;;;;;;;;;;4.50;44.10;;;4.04;39.60;101230.25;5033970;28;20359;-76
2022/03/07 00:56:38;;;;;;;;;;;6.70;45.20;;;4.02;39.76;101231.09;5050792;28;19929;-76
2022/03/07 00:59:05;;;;;;;;;;;4.80;44.00;;;4.01;39.91;101238.00;5033884;28;20390;-76
2022/03/07 01:01:33;;;;;;;;;;;4.40;43.90;;;4.01;39.81;101234.56;5033836;28;19924;-76
2022/03/07 01:04:01;;;;;;;;;;;4.40;44.00;;;3.94;40.26;101236.16;5069004;28;20404;-76
2022/03/07 01:06:27;;;;;;;;;;;4.40;44.00;;;3.95;39.60;101230.97;5069885;28;20022;-76
2022/03/07 01:08:54;;;;;;;;;;;4.40;43.70;;;3.94;39.18;101224.00;5054007;28;19935;-76
2022/03/07 01:11:22;;;;;;;;;;;4.40;43.50;;;3.89;39.29;101227.38;5071509;28;19925;-76
2022/03/07 01:13:49;;;;;;;;;;;4.40;43.40;;;3.77;39.60;101228.06;5053227;28;19934;-75
2022/03/07 01:16:16;;;;;;;;;;;4.30;43.30;;;3.81;39.49;101229.84;5070017;28;19974;-76
2022/03/07 01:18:43;;;;;;;;;;;4.30;43.40;;;3.84;39.45;101229.94;5050131;28;19955;-76
2022/03/07 01:21:12;;;;;;;;;;;4.20;43.60;;;3.81;39.82;101222.03;5050126;28;19955;-75
2022/03/07 01:23:42;;;;;;;;;;;4.20;43.60;;;3.78;39.43;101225.50;5049120;28;20690;-75
2022/03/07 01:26:09;;;;;;;;;;;4.30;43.40;;;3.78;39.65;101235.00;5066157;28;19936;-75
2022/03/07 01:28:36;;;;;;;;;;;4.20;43.30;;;3.72;39.28;101227.97;5066659;28;19929;-76
2022/03/07 01:31:03;;;;;;;;;;;4.10;43.40;;;3.74;39.45;101225.41;5049554;28;20556;-75
2022/03/07 01:33:30;;;;;;;;;;;4.10;43.40;;;3.66;39.52;101220.91;5050468;28;19924;-76
2022/03/07 01:35:57;;;;;;;;;;;4.20;43.70;;;3.65;39.54;101226.13;5066000;28;19925;-75
2022/03/07 01:38:27;;;;;;;;;;;5.20;44.00;;;3.65;39.53;101224.38;5051363;28;20021;-75
2022/03/07 01:40:56;;;;;;;;;;;4.00;43.40;;;3.68;40.10;101226.16;5066475;28;19929;-75
2022/03/07 01:43:24;;;;;;;;;;;4.20;43.70;;;3.63;39.37;101220.00;5065018;28;19929;-75
2022/03/07 01:45:52;;;;;;;;;;;4.10;43.60;;;3.62;39.55;101223.47;5066367;28;20280;-75
2022/03/07 01:48:18;;;;;;;;;;;4.10;43.60;;;3.62;39.85;101221.72;5076465;28;20305;-75
2022/03/07 01:50:45;;;;;;;;;;;4.00;43.80;;;3.61;39.72;101212.16;5070669;28;19924;-75
2022/03/07 01:53:13;;;;;;;;;;;4.50;44.10;;;3.59;40.17;101215.56;5069241;28;19928;-74
2022/03/07 01:55:40;;;;;;;;;;;4.10;44.10;;;3.52;40.79;101210.25;5053762;28;19986;-75
2022/03/07 01:58:07;;;;;;;;;;;4.70;44.50;;;3.60;41.00;101209.53;5053010;28;20336;-76
2022/03/07 02:00:39;;;;;;;;;;;4.00;44.60;;;3.59;40.87;101207.75;5069583;28;19928;-75
2022/03/07 02:03:07;;;;;;;;;;;4.00;44.50;;;3.55;41.02;101205.09;5068558;28;19928;-75
2022/03/07 02:05:41;;;;;;;;;;;4.00;44.50;;;3.52;40.81;101207.66;5054207;28;20357;-75
2022/03/07 02:08:17;;;;;;;;;;;3.90;44.70;;;3.48;41.01;101204.97;5069604;28;20302;-75
2022/03/07 02:10:50;;;;;;;;;;;3.90;44.70;;;3.46;41.19;101199.75;5038172;28;19925;-75
2022/03/07 02:13:20;;;;;;;;;;;4.60;44.90;;;3.40;40.89;101203.13;5051186;28;20374;-75
2022/03/07 02:15:53;;;;;;;;;;;3.80;44.60;;;3.38;41.29;101201.31;5053308;28;19924;-75
2022/03/07 02:18:23;;;;;;;;;;;3.80;44.70;;;3.31;41.45;101195.13;5053025;28;20420;-76
2022/03/07 02:20:58;;;;;;;;;;;5.20;45.60;;;3.29;41.10;101193.34;5070741;28;19936;-75
2022/03/07 02:23:26;;;;;;;;;;;3.80;45.10;;;3.21;41.77;101188.88;5051908;28;20401;-74
2022/03/07 02:25:53;;;;;;;;;;;3.80;45.10;;;3.18;42.12;101191.41;5067297;28;19994;-75
2022/03/07 02:28:21;;;;;;;;;;;3.60;45.30;;;3.09;42.50;101181.72;5066039;28;20473;-75
2022/03/07 02:30:51;;;;;;;;;;;3.60;45.80;;;3.07;43.17;101195.50;5067114;28;20503;-75
2022/03/07 02:33:21;;;;;;;;;;;3.60;46.30;;;3.01;44.70;101192.81;5048999;28;19986;-75
2022/03/07 02:35:48;;;;;;;;;;;4.10;47.90;;;2.88;46.28;101192.53;5052290;28;19935;-75
2022/03/07 02:38:17;;;;;;;;;;;3.50;48.70;;;2.86;47.10;101195.94;5068782;28;20405;-76
2022/03/07 02:40:46;;;;;;;;;;;4.50;50.20;;;2.81;47.70;101198.44;5036826;28;20391;-75
2022/03/07 02:43:18;;;;;;;;;;;3.40;50.20;;;2.74;47.92;101193.97;5052372;28;19936;-75
2022/03/07 02:45:46;;;;;;;;;;;3.10;50.50;;;2.67;48.14;101191.25;5051844;28;20380;-75
2022/03/07 02:48:14;;;;;;;;;;;3.30;50.80;;;2.65;48.61;101187.75;5052304;28;19933;-74
2022/03/07 02:50:58;;;;;;;;;;;3.00;51.20;;;2.60;49.16;101193.69;5053998;28;19928;-75
2022/03/07 02:53:26;;;;;;;;;;;3.10;52.00;;;2.50;50.08;101190.88;5051389;28;19929;-76
2022/03/07 02:55:54;;;;;;;;;;;3.60;53.10;;;2.51;50.46;101189.16;5067962;28;19925;-76
2022/03/07 02:58:22;;;;;;;;;;;3.00;53.30;;;2.45;51.46;101191.59;5051885;28;19928;-75
2022/03/07 03:00:48;;;;;;;;;;;3.00;54.00;;;2.48;52.42;101189.97;5051052;28;19935;-76
2022/03/07 03:03:16;;;;;;;;;;;4.90;55.90;;;2.38;53.05;101195.78;5049637;28;19947;-76
2022/03/07 03:05:42;;;;;;;;;;;2.90;55.00;;;2.34;53.92;101199.16;5062980;28;19978;-75
2022/03/07 03:08:09;;;;;;;;;;;2.90;55.40;;;2.32;54.37;101198.25;5067826;28;19935;-75
2022/03/07 03:10:39;;;;;;;;;;;4.30;56.50;;;2.26;55.09;101209.34;5068215;28;19990;-74
2022/03/07 03:13:09;;;;;;;;;;;2.70;56.10;;;2.20;55.88;101198.84;5067036;28;19928;-74
2022/03/07 03:15:39;;;;;;;;;;;2.70;56.90;;;2.12;57.46;101198.66;5067569;28;19932;-75
2022/03/07 03:18:08;;;;;;;;;;;2.80;57.50;;;2.11;57.08;101200.34;5051191;28;19928;-75
2022/03/07 03:20:39;;;;;;;;;;;2.60;57.50;;;2.07;57.54;101193.34;5084706;28;20431;-74
2022/03/07 03:23:09;;;;;;;;;;;2.60;57.40;;;1.98;58.21;101204.38;5067399;28;19932;-76
2022/03/07 03:25:36;;;;;;;;;;;4.50;58.60;;;1.97;58.40;101202.63;5067655;28;20558;-75
2022/03/07 03:28:04;;;;;;;;;;;2.50;58.30;;;1.96;58.69;101213.84;5051045;28;20647;-74
2022/03/07 03:30:31;;;;;;;;;;;2.40;58.50;;;1.97;58.59;101212.13;5067834;28;19932;-74
2022/03/07 03:33:01;;;;;;;;;;;2.60;58.90;;;1.86;58.91;101213.56;5067105;28;20670;-74
2022/03/07 03:35:28;;;;;;;;;;;2.20;58.60;;;1.85;58.83;101215.28;5067697;28;20627;-74
2022/03/07 03:38:00;;;;;;;;;;;2.50;58.90;;;1.77;58.66;101217.69;5067540;28;20498;-75
2022/03/07 03:40:27;;;;;;;;;;;2.30;58.90;;;1.71;58.72;101217.50;5067849;28;20019;-77
2022/03/07 03:42:54;;;;;;;;;;;3.60;59.60;;;1.67;59.25;101215.69;5068117;28;20015;-75
2022/03/07 03:45:21;;;;;;;;;;;2.30;59.50;;;1.61;58.96;101216.41;5068621;28;19993;-75
2022/03/07 03:47:47;;;;;;;;;;;2.20;59.40;;;1.62;57.89;101215.56;5067294;28;19929;-75
2022/03/07 03:50:14;;;;;;;;;;;2.30;59.20;;;1.60;57.64;101214.63;5066658;28;20365;-75
2022/03/07 03:52:42;;;;;;;;;;;2.30;59.30;;;1.54;57.82;101212.75;5067393;28;19933;-74
2022/03/07 03:55:11;;;;;;;;;;;2.20;59.40;;;1.56;57.89;101220.59;5049615;28;19929;-75
2022/03/07 03:57:39;;;;;;;;;;;2.00;59.30;;;1.48;57.53;101216.91;5048759;28;19933;-75
2022/03/07 04:00:08;;;;;;;;;;;2.20;59.50;;;1.42;57.51;101215.91;5047206;28;19931;-76
2022/03/07 04:02:38;;;;;;;;;;;2.10;59.40;;;1.38;57.95;101214.06;5046671;28;20001;-76
2022/03/07 04:05:06;;;;;;;;;;;3.20;60.30;;;1.38;57.80;101224.44;5030273;28;19960;-76
2022/03/07 04:07:33;;;;;;;;;;;1.90;59.60;;;1.36;57.40;101231.31;5047780;28;19929;-74
2022/03/07 04:10:00;;;;;;;;;;;3.50;60.90;;;1.36;57.53;101233.00;5032159;28;20035;-75
2022/03/07 04:12:27;;;;;;;;;;;2.10;60.10;;;1.34;57.47;101238.19;5031233;28;20015;-75
2022/03/07 04:14:54;;;;;;;;;;;1.80;60.30;;;1.28;57.46;101237.97;5049611;28;20307;-74
2022/03/07 04:17:21;;;;;;;;;;;1.30;60.40;;;1.24;57.93;101236.16;5048777;28;19925;-74
2022/03/07 04:19:47;;;;;;;;;;;1.90;60.80;;;1.27;57.64;101234.53;5048916;28;19924;-74
2022/03/07 04:22:15;;;;;;;;;;;3.10;61.20;;;1.25;57.62;101232.72;5049603;28;19936;-74
2022/03/07 04:24:42;;;;;;;;;;;4.30;62.70;;;1.23;57.15;101232.66;5033102;28;19929;-74
2022/03/07 04:27:09;;;;;;;;;;;2.20;61.00;;;1.27;57.04;101241.41;5050011;28;20416;-75
2022/03/07 04:29:36;;;;;;;;;;;1.60;60.70;;;1.28;56.78;101232.78;5049212;28;19925;-75
2022/03/07 04:32:03;;;;;;;;;;;0.00;59.50;;;1.31;56.25;101242.38;5033338;28;20401;-75
2022/03/07 04:34:30;;;;;;;;;;;1.80;59.80;;;1.19;56.16;101242.94;5049440;28;19980;-75
2022/03/07 04:36:57;;;;;;;;;;;2.10;60.50;;;1.18;55.86;101236.00;5049920;28;19925;-74
2022/03/07 04:39:24;;;;;;;;;;;1.80;60.30;;;1.24;55.89;101242.19;5051396;28;20031;-75
2022/03/07 04:41:51;;;;;;;;;;;1.80;59.80;;;1.20;56.11;101242.09;5049652;28;20011;-76
2022/03/07 04:44:18;;;;;;;;;;;1.80;59.80;;;1.11;55.51;101235.78;5047119;28;19924;-76
2022/03/07 04:46:45;;;;;;;;;;;1.60;59.60;;;1.08;56.22;101240.00;5066087;28;19978;-76
2022/03/07 04:49:12;;;;;;;;;;;1.70;60.00;;;1.10;56.50;101235.78;5069432;28;19932;-76
2022/03/07 04:51:45;;;;;;;;;;;1.80;60.20;;;1.06;56.79;101245.16;5050992;28;20308;-75
2022/03/07 04:54:15;;;;;;;;;;;4.60;62.10;;;1.01;56.82;101243.25;5066602;28;20687;-75
2022/03/07 04:56:43;;;;;;;;;;;1.60;60.40;;;1.01;57.03;101258.81;5066914;28;19928;-75
2022/03/07 04:59:12;;;;;;;;;;;1.70;60.40;;;0.94;57.62;101258.66;5050791;28;19939;-75
2022/03/07 05:01:39;;;;;;;;;;;1.70;60.70;;;0.90;57.31;101256.78;5064937;28;19935;-74
2022/03/07 05:04:07;;;;;;;;;;;1.40;60.70;;;0.92;59.40;101262.00;5050402;28;19925;-75
2022/03/07 05:06:34;;;;;;;;;;;1.70;62.40;;;0.91;58.95;101257.66;5050336;28;19929;-74
2022/03/07 05:09:02;;;;;;;;;;;1.50;62.10;;;0.87;59.13;101271.38;5067472;28;19924;-75
2022/03/07 05:11:29;;;;;;;;;;;1.60;62.30;;;0.90;58.87;101276.63;5068182;28;20011;-75
2022/03/07 05:13:55;;;;;;;;;;;2.70;62.50;;;0.90;58.93;101276.63;5061804;28;19934;-75
2022/03/07 05:16:22;;;;;;;;;;;3.20;63.70;;;0.90;58.73;101277.50;5067110;28;20388;-75
2022/03/07 05:18:49;;;;;;;;;;;1.50;62.10;;;0.91;58.58;101281.00;5066480;28;20294;-76
2022/03/07 05:21:16;;;;;;;;;;;1.50;62.30;;;0.91;58.58;101270.63;5068325;28;20398;-75
2022/03/07 05:23:44;;;;;;;;;;;1.60;62.60;;;0.95;58.60;101273.34;5051264;28;19932;-75
2022/03/07 05:26:10;;;;;;;;;;;1.40;62.60;;;0.90;58.11;101274.91;5070534;28;19931;-76
2022/03/07 05:28:37;;;;;;;;;;;1.60;62.40;;;0.96;58.24;101276.81;5069992;28;20034;-76
2022/03/07 05:31:05;;;;;;;;;;;3.80;63.60;;;0.93;57.47;101281.91;5070170;28;20321;-75
2022/03/07 05:33:32;;;;;;;;;;;1.60;62.00;;;0.91;57.20;101279.25;5052034;28;19933;-75
2022/03/07 05:35:59;;;;;;;;;;;1.60;62.10;;;0.93;57.05;101282.78;5070190;28;19928;-74
2022/03/07 05:38:26;;;;;;;;;;;1.40;61.80;;;0.92;57.25;101283.59;5070878;28;19924;-75
2022/03/07 05:40:53;;;;;;;;;;;1.60;62.00;;;0.96;56.55;101287.19;5072042;28;19924;-76
2022/03/07 05:43:20;;;;;;;;;;;1.50;61.50;;;0.99;56.73;101288.16;5071442;28;20312;-76
2022/03/07 05:45:46;;;;;;;;;;;1.40;62.10;;;0.98;55.73;101290.69;5090401;28;19935;-76
2022/03/07 05:48:13;;;;;;;;;;;1.60;61.10;;;0.96;56.11;101285.47;5092234;28;20454;-76
2022/03/07 05:50:41;;;;;;;;;;;1.60;61.20;;;0.91;55.53;101288.75;5073215;28;19924;-76
2022/03/07 05:53:08;;;;;;;;;;;1.60;60.70;;;0.93;55.11;101290.53;5070739;28;19924;-76
2022/03/07 05:55:35;;;;;;;;;;;1.50;60.60;;;0.95;54.86;101291.50;5069812;28;20385;-75
2022/03/07 05:58:02;;;;;;;;;;;1.60;60.60;;;0.92;54.73;101296.56;5053182;28;20454;-76
2022/03/07 06:00:29;;;;;;;;;;;1.50;60.30;;;0.99;54.21;101290.75;5069879;28;19943;-76
2022/03/07 06:02:56;;;;;;;;;;;1.50;60.10;;;1.03;54.23;101293.44;5052639;28;20275;-76
2022/03/07 06:05:24;;;;;;;;;;;1.90;60.40;;;1.03;53.95;101289.13;5053365;28;19928;-75
2022/03/07 06:07:50;;;;;;;;;;;1.50;60.00;;;1.08;54.09;101294.44;5069352;28;19931;-76
2022/03/07 06:10:17;;;;;;;;;;;1.70;60.10;;;1.10;54.17;101296.25;5069136;28;19929;-75
2022/03/07 06:12:44;;;;;;;;;;;1.60;60.00;;;1.13;53.84;101301.53;5054596;28;19936;-75
2022/03/07 06:15:17;;;;;;;;;;;1.60;60.00;;;1.15;53.60;101291.22;5033658;28;19967;-76
2022/03/07 06:17:50;;;;;;;;;;;1.70;59.60;;;1.19;52.99;101289.59;5046371;28;19933;-75
2022/03/07 06:20:19;;;;;;;;;;;1.70;59.20;;;1.23;52.80;101281.91;5053124;28;20019;-75
2022/03/07 06:22:46;;;;;;;;;;;1.70;59.10;;;1.23;52.79;101289.69;5052427;28;19924;-76
2022/03/07 06:25:13;;;;;;;;;;;1.80;59.10;;;1.26;52.63;101304.47;5069317;28;19936;-76
2022/03/07 06:27:40;;;;;;;;;;;2.30;59.40;;;1.25;52.66;101306.22;5052695;28;19994;-76
2022/03/07 06:30:08;;;;;;;;;;;3.10;59.80;;;1.28;52.64;101302.81;5069319;28;20327;-76
2022/03/07 06:32:38;;;;;;;;;;;1.80;59.00;;;1.21;52.42;101311.25;5068905;28;19924;-76
2022/03/07 06:35:11;;;;;;;;;;;3.20;59.50;;;1.29;52.37;101299.38;5052466;28;19925;-75
2022/03/07 06:37:37;;;;;;;;;;;1.80;58.70;;;1.37;51.80;101299.59;5069257;28;19928;-76
2022/03/07 06:40:05;;;;;;;;;;;1.90;58.50;;;1.38;51.69;101310.03;5052497;28;19940;-76
2022/03/07 06:42:32;;;;;;;;;;;1.90;58.30;;;1.40;51.50;101315.25;5069024;28;20313;-75
2022/03/07 06:44:59;;;;;;;;;;;3.30;58.90;;;1.44;51.07;101304.16;5070402;28;20467;-77
2022/03/07 06:47:26;;;;;;;;;;;2.00;58.00;;;1.48;51.13;101315.47;5068988;28;19932;-76
2022/03/07 06:49:56;;;;;;;;;;;3.50;58.60;;;1.49;51.07;101309.47;5068897;28;19924;-76
2022/03/07 06:52:26;;;;;;;;;;;1.90;57.90;;;1.51;51.04;101316.44;5068433;28;19946;-75
2022/03/07 06:54:53;;;;;;;;;;;2.70;58.30;;;1.49;51.06;101317.25;5069145;28;20023;-76
2022/03/07 06:57:21;;;;;;;;;;;2.10;57.80;;;1.55;50.91;101317.41;5068770;28;19924;-75
2022/03/07 06:59:49;;;;;;;;;;;2.20;58.00;;;1.55;50.26;101314.81;5068799;28;20754;-74
2022/03/07 07:02:16;;;;;;;;;;;2.10;57.30;;;1.53;49.62;101319.94;5068422;28;19928;-75
2022/03/07 07:04:43;;;;;;;;;;;2.10;56.50;;;1.51;49.76;101319.03;5069039;28;19951;-75
2022/03/07 07:07:10;;;;;;;;;;;4.20;57.50;;;1.57;49.44;101333.91;5073274;28;19993;-75
2022/03/07 07:09:37;;;;;;;;;;;2.10;56.20;;;1.59;49.13;101321.84;5052637;28;19962;-76
2022/03/07 07:12:05;;;;;;;;;;;3.70;56.80;;;1.57;47.54;101333.03;5052305;28;19935;-75
2022/03/07 07:14:32;;;;;;;;;;;2.20;54.20;;;1.59;46.95;101332.22;5068864;28;19936;-76
2022/03/07 07:16:59;;;;;;;;;;;3.10;54.50;;;1.58;46.96;101324.41;5068231;28;19928;-76
2022/03/07 07:19:26;;;;;;;;;;;2.20;53.80;;;1.60;46.35;101331.38;5068418;28;19924;-75
2022/03/07 07:21:53;;;;;;;;;;;4.10;54.30;;;1.65;46.58;101328.94;5051619;28;20433;-75
2022/03/07 07:24:20;;;;;;;;;;;4.10;54.30;;;1.62;46.37;101329.72;5084387;28;19955;-76
2022/03/07 07:26:47;;;;;;;;;;;2.60;53.30;;;1.67;46.26;101330.75;5082661;28;19924;-77
2022/03/07 07:29:13;;;;;;;;;;;3.30;53.80;;;1.72;46.07;101340.34;5068146;28;19928;-76
2022/03/07 07:31:40;;;;;;;;;;;2.20;52.70;;;1.76;46.13;101332.72;5068073;28;19929;-77
2022/03/07 07:34:07;;;;;;;;;;;2.40;52.60;;;1.77;45.78;101334.47;5067806;28;20369;-76
2022/03/07 07:36:34;;;;;;;;;;;2.30;52.30;;;1.75;45.42;101335.25;5069539;28;20312;-76
2022/03/07 07:39:01;;;;;;;;;;;2.80;52.40;;;1.73;45.30;101340.41;5067777;28;19963;-76
2022/03/07 07:41:28;;;;;;;;;;;2.30;52.00;;;1.78;45.95;101344.00;5067933;28;19931;-76
2022/03/07 07:43:55;;;;;;;;;;;2.20;52.30;;;1.88;45.41;101342.53;5067314;28;20542;-76
2022/03/07 07:46:22;;;;;;;;;;;2.40;52.20;;;1.94;45.59;101347.88;5068351;28;19932;-76
2022/03/07 07:48:50;;;;;;;;;;;2.20;52.20;;;2.03;45.37;101352.47;5069087;28;20392;-76
2022/03/07 07:51:17;;;;;;;;;;;3.40;52.40;;;2.07;45.31;101362.09;5067923;28;19934;-76
2022/03/07 07:53:43;;;;;;;;;;;2.40;52.00;;;2.16;45.38;101348.47;5050675;28;19967;-76
2022/03/07 07:56:10;;;;;;;;;;;3.20;52.30;;;2.23;45.25;101350.38;5051302;28;19970;-76
2022/03/07 07:58:37;;;;;;;;;;;2.50;51.90;;;2.29;45.32;101351.41;5067836;28;19928;-76
2022/03/07 08:01:04;;;;;;;;;;;4.80;53.20;;;2.33;45.02;101353.22;5067590;28;19935;-76
2022/03/07 08:03:32;;;;;;;;;;;2.90;51.90;;;2.33;45.07;101361.88;5068850;28;19924;-77
2022/03/07 08:06:00;;;;;;;;;;;4.80;52.80;;;2.36;44.80;101358.50;5050888;28;19985;-76
2022/03/07 08:08:27;;;;;;;;;;;3.30;51.60;;;2.36;44.54;101355.91;5068211;28;19932;-76
2022/03/07 08:10:54;;;;;;;;;;;2.90;51.40;;;2.36;44.99;101364.59;5052828;28;19955;-76
2022/03/07 08:13:21;;;;;;;;;;;2.80;51.30;;;2.38;44.92;101362.91;5069131;28;19934;-76
2022/03/07 08:15:48;;;;;;;;;;;2.90;51.50;;;2.42;45.23;101358.69;5034263;28;19928;-76
2022/03/07 08:18:17;;;;;;;;;;;2.90;51.60;;;2.44;45.27;101369.97;5067714;28;20023;-77
2022/03/07 08:20:50;;;;;;;;;;;3.00;51.80;;;2.50;44.94;101364.06;5067520;28;19968;-76
2022/03/07 08:23:17;;;;;;;;;;;3.00;51.70;;;2.54;45.08;101366.75;5067419;28;19970;-77
2022/03/07 08:25:44;;;;;;;;;;;3.00;51.80;;;2.59;44.92;101373.81;5067590;28;19928;-78
2022/03/07 08:28:12;;;;;;;;;;;2.90;51.70;;;2.63;45.08;101371.31;5051195;28;19930;-77
2022/03/07 08:30:39;;;;;;;;;;;4.50;52.30;;;2.62;45.17;101372.16;5067535;28;19929;-76
2022/03/07 08:33:06;;;;;;;;;;;3.20;51.90;;;2.63;44.93;101367.84;5067719;28;19924;-77
2022/03/07 08:35:33;;;;;;;;;;;2.90;51.30;;;2.69;45.90;101358.47;5067834;28;19972;-76
2022/03/07 08:38:00;;;;;;;;;;;3.10;52.20;;;2.69;45.61;101363.69;5067720;28;19963;-77
2022/03/07 08:40:27;;;;;;;;;;;4.00;52.50;;;2.71;45.32;101361.09;5067688;28;19929;-76
2022/03/07 08:42:55;;;;;;;;;;;3.20;51.80;;;2.87;45.48;101372.75;5067347;28;20022;-78
2022/03/07 08:45:25;;;;;;;;;;;3.10;51.90;;;2.96;45.36;101369.50;5068285;28;20413;-75
2022/03/07 08:48:12;;;;;;;;;;;4.50;52.90;;;2.97;45.24;101364.34;5068369;28;19928;-76
2022/03/07 08:50:39;;;;;;;;;;;3.40;52.00;;;3.05;45.17;101369.72;5034939;28;20340;-77
2022/03/07 08:53:05;;;;;;;;;;;3.30;52.00;;;3.09;45.21;101371.53;5067569;28;20297;-76
2022/03/07 08:55:32;;;;;;;;;;;4.70;53.10;;;3.16;44.96;101367.34;5051071;28;19928;-77
2022/03/07 08:57:59;;;;;;;;;;;5.10;52.60;;;3.22;44.84;101371.81;5068096;28;20604;-76
2022/03/07 09:00:26;;;;;;;;;;;4.40;52.30;;;3.22;44.98;101370.09;5071466;28;19932;-76
2022/03/07 09:02:53;;;;;;;;;;;3.70;51.90;;;3.30;44.88;101372.00;5070895;28;20059;-77
2022/03/07 09:05:20;;;;;;;;;;;3.70;51.80;;;3.26;44.37;101373.66;5071768;28;19925;-77
2022/03/07 09:07:47;;;;;;;;;;;3.90;51.40;;;3.31;44.80;101368.53;5071627;28;20015;-77
2022/03/07 09:10:14;;;;;;;;;;;3.80;51.50;;;3.34;43.88;101379.88;5071818;28;19929;-77
2022/03/07 09:12:41;;;;;;;;;;;3.80;51.10;;;3.34;43.47;101382.47;5086889;28;19971;-76
2022/03/07 09:15:09;;;;;;;;;;;3.70;50.40;;;3.45;43.66;101389.66;5055415;28;19924;-77
2022/03/07 09:17:36;;;;;;;;;;;3.70;50.30;;;3.49;43.65;101387.16;5072764;28;19924;-78
2022/03/07 09:20:05;;;;;;;;;;;3.80;50.50;;;3.50;43.69;101388.91;5071511;28;19933;-78
2022/03/07 09:22:32;;;;;;;;;;;4.00;50.50;;;3.59;44.07;101401.25;5071584;28;20348;-77
2022/03/07 09:24:59;;;;;;;;;;;4.60;51.20;;;3.66;43.05;101394.44;5072495;28;20286;-77
2022/03/07 09:27:26;;;;;;;;;;;4.70;50.50;;;3.73;42.98;101388.50;5072060;28;19925;-77
2022/03/07 09:29:53;;;;;;;;;;;4.10;49.80;;;3.78;42.76;101396.41;5071781;28;19925;-77
2022/03/07 09:32:23;;;;;;;;;;;4.90;50.50;;;3.82;43.01;101395.63;5060636;28;19928;-77
2022/03/07 09:34:50;;;;;;;;;;;4.20;50.00;;;3.86;42.84;101406.97;5050746;28;19951;-77
2022/03/07 09:37:17;;;;;;;;;;;5.00;50.20;;;3.89;41.98;101392.31;5068523;28;19947;-76
2022/03/07 09:39:44;;;;;;;;;;;4.20;49.00;;;3.91;41.66;101395.81;5070389;28;20366;-76
2022/03/07 09:42:11;;;;;;;;;;;4.30;48.60;;;3.84;42.08;101393.94;5072337;28;20312;-77
2022/03/07 09:44:38;;;;;;;;;;;4.40;48.60;;;3.93;41.38;101396.72;5069997;28;19925;-77
2022/03/07 09:47:05;;;;;;;;;;;4.30;48.40;;;4.09;41.12;101399.63;5071719;28;19935;-77
2022/03/07 09:49:33;;;;;;;;;;;4.40;48.30;;;4.03;41.43;101404.72;5069888;28;19929;-77
2022/03/07 09:52:03;;;;;;;;;;;4.50;48.10;;;4.15;41.11;101393.66;5070337;28;20309;-77
2022/03/07 09:54:30;;;;;;;;;;;4.50;48.00;;;4.30;41.17;101390.50;5059497;28;19932;-76
2022/03/07 09:56:57;;;;;;;;;;;4.60;48.10;;;4.39;40.77;101388.91;5038939;28;19924;-73
2022/03/07 09:59:25;;;;;;;;;;;4.60;48.00;;;4.47;40.48;101393.38;5041683;28;20396;-76
2022/03/07 10:02:00;;;;;;;;;;;4.70;47.70;;;4.56;40.75;101392.66;5060863;28;19935;-75
2022/03/07 10:04:30;;;;;;;;;;;4.80;47.50;;;4.63;40.12;101384.09;5061508;28;19929;-75
2022/03/07 10:07:00;;;;;;;;;;;5.60;47.50;;;4.60;39.36;101387.53;5057100;28;20393;-77
2022/03/07 10:09:28;;;;;;;;;;;7.00;47.30;;;4.62;38.51;101382.34;5035418;28;19982;-77
2022/03/07 10:12:02;;;;;;;;;;;5.00;45.80;;;4.62;39.44;101393.66;5053650;28;19960;-77
2022/03/07 10:14:31;;;;;;;;;;;4.40;45.70;;;4.75;39.36;101389.50;5050564;28;19936;-77
2022/03/07 10:16:58;;;;;;;;;;;5.00;46.20;;;4.73;38.69;101395.56;5049877;28;19924;-77
2022/03/07 10:19:26;;;;;;;;;;;6.80;46.80;;;4.79;39.50;101378.28;5038338;28;19929;-77
2022/03/07 10:21:53;;;;;;;;;;;5.10;46.10;;;4.89;38.93;101391.47;5060194;28;20578;-76
2022/03/07 10:24:34;;;;;;;;;;;5.20;46.10;;;4.99;38.48;101389.88;5052932;28;20403;-76
2022/03/07 10:27:01;;;;;;;;;;;5.20;46.30;;;5.11;38.01;101400.50;5064694;28;20364;-77
2022/03/07 10:29:28;;;;;;;;;;;5.30;45.40;;;5.19;37.79;101387.56;5050807;28;20023;-77
2022/03/07 10:31:58;;;;;;;;;;;5.40;44.80;;;5.21;37.81;101391.97;5038019;28;20019;-77
2022/03/07 10:34:26;;;;;;;;;;;5.50;44.90;;;5.10;37.39;101385.69;5032956;28;20385;-77
2022/03/07 10:36:53;;;;;;;;;;;5.50;44.40;;;5.22;37.66;101391.09;5033016;28;20575;-77
2022/03/07 10:39:26;;;;;;;;;;;5.50;44.90;;;5.27;37.93;101396.41;5050672;28;19925;-76
2022/03/07 10:41:54;;;;;;;;;;;5.60;44.70;;;5.34;37.17;101395.63;5032574;28;19932;-77
2022/03/07 10:44:29;;;;;;;;;;;5.60;44.50;;;5.19;37.72;101390.19;5049536;28;19924;-77
2022/03/07 10:47:11;;;;;;;;;;;5.60;44.10;;;5.35;37.40;101384.31;5050251;28;19925;-77
2022/03/07 10:49:58;;;;;;;;;;;5.60;44.70;;;5.38;37.20;101386.09;5049384;28;19928;-76
2022/03/07 10:52:33;;;;;;;;;;;5.70;44.00;;;5.44;37.59;101393.16;5032464;28;19929;-77
2022/03/07 10:55:00;;;;;;;;;;;5.70;44.30;;;5.57;37.61;101400.28;5033938;28;20019;-76
2022/03/07 10:57:27;;;;;;;;;;;6.20;44.80;;;5.42;36.98;101400.94;5049708;28;19925;-75
2022/03/07 11:00:02;;;;;;;;;;;5.80;43.80;;;5.41;37.45;101386.13;5052606;28;19928;-76
2022/03/07 11:02:46;;;;;;;;;;;7.70;45.20;;;5.41;37.80;101386.13;5068448;28;19971;-76
2022/03/07 11:05:16;;;;;;;;;;;5.80;44.30;;;5.62;37.57;101387.28;5050417;28;20021;-76
2022/03/07 11:07:46;;;;;;;;;;;7.70;45.80;;;5.83;37.42;101397.13;5051129;28;19925;-76
2022/03/07 11:10:15;;;;;;;;;;;5.90;44.60;;;6.00;36.35;101389.50;5049045;28;20274;-76
2022/03/07 11:12:43;;;;;;;;;;;6.20;44.00;;;6.03;36.48;101383.47;5032140;28;19929;-77
2022/03/07 11:15:14;;;;;;;;;;;6.20;43.70;;;6.04;36.61;101382.59;5046126;28;19970;-77
2022/03/07 11:17:43;;;;;;;;;;;7.60;44.20;;;6.10;35.85;101378.31;5063956;28;19933;-76
2022/03/07 11:20:13;;;;;;;;;;;6.30;43.50;;;6.14;36.43;101381.81;5052464;28;19924;-76
2022/03/07 11:22:43;;;;;;;;;;;6.50;43.30;;;6.27;36.28;101379.34;5068671;28;19935;-75
2022/03/07 11:25:15;;;;;;;;;;;6.70;43.60;;;6.27;36.18;101372.41;5068997;28;20393;-75
2022/03/07 11:27:43;;;;;;;;;;;6.60;43.10;;;6.42;35.84;101371.66;5068669;28;20390;-76
2022/03/07 11:30:21;;;;;;;;;;;6.60;43.00;;;6.44;35.60;101372.53;5069802;28;19928;-75